Time;durP1;ratioP1;P1;durP2;ratioP2;P2;SDS_P1;SDS_P2;PMS_P1;PMS_P2;Temp;Humidity;BMP_temperature;BMP_pressure;BME280_temperature;BME280_humidity;BME280_pressure;Samples;Min_cycle;Max_cycle;Signal;HPM_P1;HPM_P2
2022/10/01 00:02:06;;;;;;;0.60;0.10;;;11.50;1.00;;;;;;5070594;28;20445;-73
2022/10/01 00:04:36;;;;;;;0.60;0.10;;;11.50;1.00;;;;;;5070451;28;20531;-73
2022/10/01 00:07:08;;;;;;;3.23;0.70;;;11.40;1.00;;;;;;5071978;28;20441;-73
2022/10/01 00:09:36;;;;;;;0.60;0.17;;;11.40;1.00;;;;;;5065290;28;20465;-72
2022/10/01 00:12:04;;;;;;;0.60;0.10;;;11.40;1.00;;;;;;5070601;28;20473;-72
2022/10/01 00:14:31;;;;;;;4.40;0.87;;;11.40;1.00;;;;;;5074525;28;20495;-72
2022/10/01 00:17:00;;;;;;;0.60;0.30;;;11.40;1.00;;;;;;5071561;28;20499;-72
2022/10/01 00:19:29;;;;;;;0.60;0.10;;;11.30;1.00;;;;;;5088256;28;21049;-72
2022/10/01 00:21:57;;;;;;;0.70;0.20;;;11.30;1.00;;;;;;5080213;28;20472;-73
2022/10/01 00:24:25;;;;;;;0.60;0.30;;;11.40;1.00;;;;;;5074513;28;20923;-72
2022/10/01 00:26:52;;;;;;;0.60;0.10;;;11.30;1.00;;;;;;5075654;28;20510;-73
2022/10/01 00:29:20;;;;;;;1.23;1.13;;;11.40;1.00;;;;;;5074379;28;20461;-73
2022/10/01 00:31:48;;;;;;;1.40;1.30;;;11.40;1.00;;;;;;5074628;28;20433;-73
2022/10/01 00:34:17;;;;;;;1.03;0.97;;;11.30;1.00;;;;;;5054229;28;20474;-73
2022/10/01 00:36:45;;;;;;;0.60;0.10;;;11.30;1.00;;;;;;5055290;28;20952;-73
2022/10/01 00:39:13;;;;;;;0.73;0.70;;;11.30;1.00;;;;;;5083065;28;21032;-73
2022/10/01 00:41:41;;;;;;;1.90;0.97;;;11.30;1.00;;;;;;5094659;28;20959;-73
2022/10/01 00:44:31;;;;;;;0.60;0.20;;;11.10;1.00;;;;;;5098776;28;20482;-72
2022/10/01 00:47:04;;;;;;;1.33;1.23;;;11.10;1.00;;;;;;5100106;28;20468;-73
2022/10/01 00:49:37;;;;;;;0.60;0.20;;;11.00;1.00;;;;;;5099591;28;20474;-72
2022/10/01 00:52:08;;;;;;;0.60;0.10;;;11.00;1.00;;;;;;5092939;28;20468;-73
2022/10/01 00:54:42;;;;;;;1.57;0.83;;;11.00;1.00;;;;;;5077291;28;20453;-73
2022/10/01 00:57:14;;;;;;;0.60;0.10;;;10.90;1.00;;;;;;5075589;28;20810;-73
2022/10/01 00:59:42;;;;;;;2.27;1.40;;;10.80;1.00;;;;;;5074648;28;20701;-73
2022/10/01 01:02:10;;;;;;;0.60;0.20;;;10.70;1.00;;;;;;5080583;28;20444;-73
2022/10/01 01:04:41;;;;;;;0.60;0.10;;;10.70;1.00;;;;;;5084713;28;20500;-73
2022/10/01 01:07:09;;;;;;;0.97;0.73;;;10.70;1.00;;;;;;5074822;28;20512;-73
2022/10/01 01:09:40;;;;;;;1.83;1.33;;;10.80;1.00;;;;;;5092622;28;20526;-73
2022/10/01 01:12:15;;;;;;;0.70;0.50;;;10.70;1.00;;;;;;5082449;28;20445;-73
2022/10/01 01:14:56;;;;;;;0.60;0.10;;;10.70;1.00;;;;;;5094254;28;20513;-73
2022/10/01 01:17:30;;;;;;;2.50;1.93;;;10.70;1.00;;;;;;5094710;28;20478;-72
2022/10/01 01:20:27;;;;;;;1.57;1.47;;;10.70;1.00;;;;;;5082768;28;21093;-74
2022/10/01 01:23:09;;;;;;;0.70;0.63;;;10.70;1.00;;;;;;5086989;28;20449;-72
2022/10/01 01:25:46;;;;;;;0.60;0.20;;;10.70;1.00;;;;;;5074480;28;20481;-72
2022/10/01 01:28:20;;;;;;;0.70;0.50;;;;;;;;;;5075364;28;20800;-72
2022/10/01 01:30:50;;;;;;;0.60;0.10;;;10.80;1.00;;;;;;5089054;28;20542;-72
2022/10/01 01:33:21;;;;;;;0.60;0.20;;;10.90;1.00;;;;;;5077816;28;20477;-73
2022/10/01 01:35:52;;;;;;;0.60;0.10;;;10.90;1.00;;;;;;5073759;28;21026;-74
2022/10/01 01:38:26;;;;;;;1.03;0.97;;;10.90;1.00;;;;;;5073486;28;20450;-72
2022/10/01 01:40:58;;;;;;;1.17;1.07;;;11.00;1.00;;;;;;5073489;28;20478;-72
2022/10/01 01:43:32;;;;;;;0.60;0.10;;;11.00;1.00;;;;;;5089358;28;20480;-73
2022/10/01 01:46:01;;;;;;;1.67;0.83;;;11.00;1.00;;;;;;5057795;28;20528;-73
2022/10/01 01:48:30;;;;;;;0.60;0.20;;;11.00;1.00;;;;;;5073611;28;20451;-73
2022/10/01 01:51:05;;;;;;;0.70;0.20;;;11.00;1.00;;;;;;5089199;28;20512;-73
2022/10/01 01:53:34;;;;;;;1.20;1.10;;;11.00;1.00;;;;;;5077922;28;20445;-72
2022/10/01 01:56:02;;;;;;;1.00;0.50;;;11.00;1.00;;;;;;5079764;28;20441;-73
2022/10/01 01:58:33;;;;;;;0.60;0.10;;;11.00;1.00;;;;;;5078318;28;20449;-73
2022/10/01 02:01:02;;;;;;;1.50;1.40;;;11.10;1.00;;;;;;5091202;28;20465;-73
2022/10/01 02:03:33;;;;;;;2.40;1.70;;;11.20;1.00;;;;;;5082460;28;20816;-72
2022/10/01 02:06:11;;;;;;;0.60;0.20;;;11.20;1.00;;;;;;5096991;28;20508;-72
2022/10/01 02:08:46;;;;;;;0.60;0.10;;;11.00;1.00;;;;;;5092615;28;20823;-73
2022/10/01 02:11:22;;;;;;;0.60;0.20;;;11.10;1.00;;;;;;5083205;28;20457;-73
2022/10/01 02:14:01;;;;;;;0.60;0.10;;;11.10;1.00;;;;;;5091798;28;20480;-74
2022/10/01 02:16:35;;;;;;;0.60;0.10;;;11.10;1.00;;;;;;5093230;28;20487;-73
2022/10/01 02:19:12;;;;;;;2.50;2.30;;;11.20;1.00;;;;;;5093558;28;20510;-73
2022/10/01 02:21:46;;;;;;;3.07;2.50;;;11.20;1.00;;;;;;5087730;28;20506;-74
2022/10/01 02:24:23;;;;;;;2.70;1.67;;;11.20;1.00;;;;;;5092270;28;20522;-73
2022/10/01 02:26:53;;;;;;;0.90;0.80;;;11.20;1.00;;;;;;5085167;28;20492;-73
2022/10/01 02:29:23;;;;;;;0.60;0.20;;;11.20;1.00;;;;;;5059836;28;20514;-73
2022/10/01 02:31:54;;;;;;;2.40;2.10;;;11.20;1.00;;;;;;5081360;28;20452;-73
2022/10/01 02:34:28;;;;;;;0.60;0.10;;;11.30;1.00;;;;;;5072772;28;20437;-72
2022/10/01 02:36:58;;;;;;;0.60;0.20;;;11.20;1.00;;;;;;5073196;28;20867;-72
2022/10/01 02:39:29;;;;;;;0.60;0.10;;;11.20;1.00;;;;;;5072068;28;20523;-72
2022/10/01 02:41:59;;;;;;;0.60;0.40;;;11.20;1.00;;;;;;5094347;22;20551;-75
2022/10/01 02:44:36;;;;;;;2.27;2.10;;;11.30;1.00;;;;;;5073123;28;20999;-75
2022/10/01 02:47:09;;;;;;;3.13;1.80;;;11.20;1.00;;;;;;5072648;28;20492;-75
2022/10/01 02:49:40;;;;;;;0.60;0.30;;;11.20;1.00;;;;;;5073410;28;20449;-75
2022/10/01 02:52:13;;;;;;;0.70;0.33;;;11.20;1.00;;;;;;5085666;28;20526;-76
2022/10/01 02:54:49;;;;;;;0.60;0.10;;;11.20;1.00;;;;;;5063742;28;20440;-74
2022/10/01 02:57:26;;;;;;;0.70;0.50;;;11.20;1.00;;;;;;5092863;28;20449;-78
2022/10/01 02:59:57;;;;;;;0.60;0.10;;;11.20;1.00;;;;;;5078984;28;20445;-75
2022/10/01 03:02:27;;;;;;;3.90;3.60;;;11.20;1.00;;;;;;5075134;28;20472;-77
2022/10/01 03:04:56;;;;;;;1.50;0.80;;;11.20;1.00;;;;;;5074532;28;20488;-76
2022/10/01 03:07:24;;;;;;;2.40;2.20;;;11.20;1.00;;;;;;5087984;28;20853;-75
2022/10/01 03:09:52;;;;;;;0.80;0.60;;;11.20;1.00;;;;;;5091709;28;20943;-77
2022/10/01 03:12:21;;;;;;;0.60;0.30;;;11.20;1.00;;;;;;5080178;28;20551;-75
2022/10/01 03:14:49;;;;;;;13.50;2.90;;;11.20;1.00;;;;;;5094080;28;20449;-76
2022/10/01 03:17:19;;;;;;;3.77;3.40;;;11.10;1.00;;;;;;5087975;28;20454;-77
2022/10/01 03:19:46;;;;;;;1.87;1.77;;;11.10;1.00;;;;;;5081284;28;20441;-78
2022/10/01 03:22:21;;;;;;;0.60;0.20;;;11.20;1.00;;;;;;5077666;28;20473;-77
2022/10/01 03:24:49;;;;;;;0.60;0.37;;;11.20;1.00;;;;;;5073705;28;21066;-77
2022/10/01 03:27:17;;;;;;;0.60;0.30;;;11.20;1.00;;;;;;5072944;28;20473;-76
2022/10/01 03:29:45;;;;;;;0.60;0.37;;;11.30;1.00;;;;;;5073864;28;20507;-76
2022/10/01 03:32:14;;;;;;;0.60;0.30;;;11.30;1.00;;;;;;5073488;28;20462;-77
2022/10/01 03:34:43;;;;;;;0.70;0.60;;;11.30;1.00;;;;;;5077649;28;20460;-77
2022/10/01 03:37:11;;;;;;;0.60;0.20;;;11.40;1.00;;;;;;5084937;28;20449;-76
2022/10/01 03:39:40;;;;;;;1.27;0.30;;;;;;;;;;5089313;28;20460;-77
2022/10/01 03:42:07;;;;;;;0.60;0.30;;;11.30;1.00;;;;;;5082708;28;20481;-76
2022/10/01 03:44:36;;;;;;;0.90;0.50;;;11.40;1.00;;;;;;5076781;28;20492;-76
2022/10/01 03:47:04;;;;;;;1.77;1.07;;;11.30;1.00;;;;;;5094772;28;20510;-77
2022/10/01 03:49:33;;;;;;;0.90;0.70;;;11.20;1.00;;;;;;5095046;28;20958;-77
2022/10/01 03:52:03;;;;;;;3.47;3.07;;;;;;;;;;5095909;28;20469;-75
2022/10/01 03:54:31;;;;;;;0.90;0.60;;;;;;;;;;5085535;28;20445;-78
2022/10/01 03:56:59;;;;;;;0.60;0.33;;;12.40;1.00;;;;;;5084575;28;20575;-76
2022/10/01 03:59:28;;;;;;;0.60;0.30;;;11.10;1.00;;;;;;5079792;28;20948;-76
2022/10/01 04:01:56;;;;;;;2.10;1.23;;;;;;;;;;5092118;28;20476;-74
2022/10/01 04:04:24;;;;;;;1.10;0.47;;;11.10;1.00;;;;;;5087481;28;20450;-76
2022/10/01 04:06:52;;;;;;;0.60;0.47;;;11.10;1.00;;;;;;5096654;28;20472;-75
2022/10/01 04:09:21;;;;;;;0.60;0.20;;;11.10;1.00;;;;;;5096770;28;20448;-75
2022/10/01 04:11:49;;;;;;;2.40;1.30;;;11.10;1.00;;;;;;5081115;28;20465;-76
2022/10/01 04:14:17;;;;;;;0.90;0.30;;;11.10;1.00;;;;;;5076154;28;20448;-76
2022/10/01 04:16:45;;;;;;;0.60;0.30;;;11.10;1.00;;;;;;5077020;28;20469;-76
2022/10/01 04:19:12;;;;;;;0.77;0.50;;;11.10;1.00;;;;;;5076709;28;20461;-76
2022/10/01 04:21:41;;;;;;;0.60;0.30;;;11.10;1.00;;;;;;5078260;28;20465;-75
2022/10/01 04:24:09;;;;;;;0.60;0.20;;;11.00;1.00;;;;;;5096617;28;20453;-76
2022/10/01 04:26:38;;;;;;;0.60;0.20;;;11.10;1.00;;;;;;5082313;28;20476;-76
2022/10/01 04:29:05;;;;;;;0.97;0.43;;;11.00;1.00;;;;;;5071752;28;20484;-76
2022/10/01 04:31:34;;;;;;;0.80;0.50;;;11.00;1.00;;;;;;5080260;28;20475;-76
2022/10/01 04:34:03;;;;;;;0.50;0.20;;;11.00;1.00;;;;;;5095693;28;20451;-76
2022/10/01 04:36:31;;;;;;;0.70;0.40;;;11.00;1.00;;;;;;5096204;28;20538;-76
2022/10/01 04:38:59;;;;;;;1.47;1.07;;;11.00;1.00;;;;;;5094875;28;20565;-76
2022/10/01 04:41:30;;;;;;;0.70;0.40;;;11.00;1.00;;;;;;5094891;28;20478;-76
2022/10/01 04:44:00;;;;;;;1.20;1.10;;;11.00;1.00;;;;;;5094742;28;20519;-76
2022/10/01 04:46:28;;;;;;;0.60;0.30;;;10.90;1.00;;;;;;5092318;28;20875;-76
2022/10/01 04:48:57;;;;;;;0.53;0.17;;;10.90;1.00;;;;;;5083101;28;20455;-77
2022/10/01 04:51:25;;;;;;;0.70;0.30;;;10.90;1.00;;;;;;5094151;28;20465;-77
2022/10/01 04:53:53;;;;;;;0.60;0.40;;;10.90;1.00;;;;;;5075225;28;20565;-76
2022/10/01 04:56:20;;;;;;;0.70;0.53;;;10.90;1.00;;;;;;5076113;28;20442;-76
2022/10/01 04:58:48;;;;;;;1.57;1.50;;;10.90;1.00;;;;;;5075019;28;20460;-78
2022/10/01 05:01:18;;;;;;;0.60;0.10;;;10.90;1.00;;;;;;5075658;28;20500;-77
2022/10/01 05:03:46;;;;;;;0.60;0.20;;;10.90;1.00;;;;;;5094382;28;20524;-76
2022/10/01 05:06:14;;;;;;;0.57;0.20;;;10.90;1.30;;;;;;5077265;28;20473;-77
2022/10/01 05:08:42;;;;;;;0.50;0.20;;;10.90;1.00;;;;;;5079251;28;20965;-76
2022/10/01 05:11:09;;;;;;;0.60;0.40;;;10.90;2.70;;;;;;5094972;28;20529;-76
2022/10/01 05:13:37;;;;;;;0.50;0.10;;;10.90;4.90;;;;;;5075162;28;20450;-76
2022/10/01 05:16:05;;;;;;;0.57;0.10;;;11.00;2.60;;;;;;5074977;28;20480;-76
2022/10/01 05:18:34;;;;;;;0.50;0.10;;;11.00;4.20;;;;;;5094895;28;20471;-77
2022/10/01 05:21:05;;;;;;;0.60;0.20;;;11.00;4.40;;;;;;5091764;28;20496;-76
2022/10/01 05:23:33;;;;;;;0.60;0.10;;;11.00;4.10;;;;;;5074309;28;20453;-76
2022/10/01 05:26:03;;;;;;;0.60;0.30;;;10.90;5.30;;;;;;5074687;28;20473;-76
2022/10/01 05:28:30;;;;;;;4.50;2.30;;;11.00;5.00;;;;;;5092803;28;20502;-77
2022/10/01 05:31:00;;;;;;;0.53;0.10;;;11.00;2.20;;;;;;5094657;28;20526;-76
2022/10/01 05:33:28;;;;;;;0.60;0.10;;;11.00;3.70;;;;;;5094533;28;20905;-76
2022/10/01 05:35:58;;;;;;;0.60;0.20;;;11.00;3.50;;;;;;5096126;28;20433;-76
2022/10/01 05:38:26;;;;;;;0.57;0.20;;;11.00;4.70;;;;;;5080737;28;20453;-76
2022/10/01 05:40:53;;;;;;;0.50;0.10;;;11.00;6.30;;;;;;5079306;28;20478;-76
2022/10/01 05:43:21;;;;;;;0.50;0.10;;;11.00;8.20;;;;;;5077684;28;20450;-77
2022/10/01 05:45:50;;;;;;;0.60;0.10;;;11.00;9.00;;;;;;5076341;28;20458;-76
2022/10/01 05:48:18;;;;;;;0.50;0.10;;;11.10;8.50;;;;;;5092491;28;20830;-76
2022/10/01 05:50:46;;;;;;;0.60;0.20;;;11.10;6.70;;;;;;5095214;28;20498;-76
2022/10/01 05:53:15;;;;;;;0.60;0.20;;;11.10;8.10;;;;;;5094385;28;20445;-77
2022/10/01 05:55:43;;;;;;;0.50;0.10;;;11.10;7.50;;;;;;5092254;28;21137;-77
2022/10/01 05:58:12;;;;;;;0.60;0.20;;;11.10;7.80;;;;;;5094010;28;20447;-75
2022/10/01 06:00:41;;;;;;;0.57;0.27;;;11.10;8.00;;;;;;5074780;28;20441;-76
2022/10/01 06:03:11;;;;;;;0.60;0.40;;;11.10;9.90;;;;;;5074143;28;20445;-77
2022/10/01 06:05:39;;;;;;;0.50;0.10;;;11.10;9.60;;;;;;5093048;28;20861;-76
2022/10/01 06:08:09;;;;;;;0.60;0.10;;;11.10;10.90;;;;;;5078491;28;20481;-78
2022/10/01 06:10:39;;;;;;;2.83;1.27;;;11.10;15.00;;;;;;5074594;28;20574;-77
2022/10/01 06:13:07;;;;;;;1.17;0.87;;;11.10;15.50;;;;;;5054391;28;20530;-77
2022/10/01 06:15:37;;;;;;;0.60;0.10;;;11.10;15.50;;;;;;5065913;28;20476;-77
2022/10/01 06:18:06;;;;;;;0.60;0.10;;;11.10;17.20;;;;;;5088359;28;20947;-77
2022/10/01 06:20:35;;;;;;;0.60;0.20;;;11.00;15.50;;;;;;5094711;28;21028;-77
2022/10/01 06:23:04;;;;;;;1.30;0.97;;;11.00;17.10;;;;;;5096556;28;20468;-76
2022/10/01 06:25:33;;;;;;;0.50;0.10;;;11.00;20.90;;;;;;5105968;28;20483;-76
2022/10/01 06:28:04;;;;;;;0.60;0.10;;;11.00;24.10;;;;;;5083960;28;20943;-76
2022/10/01 06:30:35;;;;;;;0.60;0.10;;;11.10;26.40;;;;;;5086427;28;20449;-76
2022/10/01 06:33:04;;;;;;;0.60;0.20;;;11.10;27.80;;;;;;5096424;28;20474;-76
2022/10/01 06:35:32;;;;;;;0.57;0.10;;;11.10;27.40;;;;;;5095880;28;20478;-76
2022/10/01 06:38:01;;;;;;;1.00;0.43;;;11.10;27.00;;;;;;5069811;28;20498;-76
2022/10/01 06:40:29;;;;;;;0.50;0.20;;;11.00;26.00;;;;;;5077454;28;20449;-78
2022/10/01 06:42:58;;;;;;;0.60;0.20;;;11.00;26.30;;;;;;5093381;28;20536;-76
2022/10/01 06:45:28;;;;;;;0.60;0.13;;;11.00;30.40;;;;;;5094811;28;20951;-77
2022/10/01 06:47:57;;;;;;;1.57;1.13;;;11.00;34.50;;;;;;5081338;28;20473;-77
2022/10/01 06:50:25;;;;;;;0.60;0.20;;;11.00;37.20;;;;;;5073952;28;20947;-77
2022/10/01 06:52:53;;;;;;;0.60;0.20;;;10.90;38.00;;;;;;5073394;28;20461;-76
2022/10/01 06:55:24;;;;;;;0.80;0.70;;;11.00;43.30;;;;;;5089279;28;20445;-76
2022/10/01 06:57:55;;;;;;;0.63;0.20;;;10.90;43.00;;;;;;5061446;28;20444;-77
2022/10/01 07:00:23;;;;;;;1.17;0.63;;;10.80;47.10;;;;;;5093828;28;20505;-76
2022/10/01 07:02:54;;;;;;;0.80;0.47;;;10.90;50.10;;;;;;5081055;28;20470;-78
2022/10/01 07:05:22;;;;;;;1.20;0.57;;;10.80;57.00;;;;;;5073156;28;20449;-77
2022/10/01 07:07:51;;;;;;;0.60;0.20;;;11.60;65.50;;;;;;5072994;28;20485;-77
2022/10/01 07:10:20;;;;;;;0.80;0.40;;;10.90;69.80;;;;;;5088304;28;20475;-77
2022/10/01 07:12:50;;;;;;;0.50;0.10;;;10.90;69.80;;;;;;5088046;28;20560;-76
2022/10/01 07:15:22;;;;;;;0.60;0.27;;;10.90;69.80;;;;;;5073165;28;20453;-76
2022/10/01 07:17:52;;;;;;;0.60;0.10;;;10.90;69.80;;;;;;5085214;28;20498;-76
2022/10/01 07:20:21;;;;;;;0.60;0.20;;;10.90;69.80;;;;;;5093737;28;20453;-77
2022/10/01 07:22:49;;;;;;;0.60;0.20;;;10.90;69.80;;;;;;5093523;28;20472;-76
2022/10/01 07:25:17;;;;;;;0.60;0.30;;;10.90;69.80;;;;;;5094180;28;20476;-76
2022/10/01 07:27:45;;;;;;;0.50;0.20;;;10.80;69.70;;;;;;5093019;28;20530;-76
2022/10/01 07:30:13;;;;;;;1.20;0.97;;;10.80;71.80;;;;;;5092365;28;20448;-76
2022/10/01 07:32:44;;;;;;;1.00;0.40;;;10.80;69.70;;;;;;5092103;28;20460;-76
2022/10/01 07:35:13;;;;;;;1.10;0.97;;;10.80;71.80;;;;;;5093344;28;20490;-76
2022/10/01 07:37:41;;;;;;;2.17;1.20;;;10.80;71.90;;;;;;5093297;28;20448;-76
2022/10/01 07:40:09;;;;;;;0.70;0.50;;;10.80;74.80;;;;;;5093209;28;20863;-77
2022/10/01 07:42:37;;;;;;;0.50;0.10;;;10.80;69.70;;;;;;5087841;28;20480;-77
2022/10/01 07:45:06;;;;;;;0.90;0.40;;;10.70;76.80;;;;;;5075925;28;20449;-77
2022/10/01 07:47:34;;;;;;;0.60;0.50;;;10.80;84.10;;;;;;5086561;28;20573;-77
2022/10/01 07:50:02;;;;;;;3.23;1.00;;;10.80;86.20;;;;;;5083744;28;20878;-76
2022/10/01 07:52:31;;;;;;;1.67;0.70;;;10.70;85.90;;;;;;5082088;28;20824;-77
2022/10/01 07:54:59;;;;;;;1.07;1.07;;;10.80;90.00;;;;;;5085559;28;20974;-77
2022/10/01 07:57:27;;;;;;;0.50;0.20;;;10.80;88.60;;;;;;5074515;28;20437;-77
2022/10/01 07:59:55;;;;;;;1.17;1.07;;;10.70;90.20;;;;;;5084018;28;20453;-77
2022/10/01 08:02:23;;;;;;;0.50;0.10;;;10.70;92.10;;;;;;5072702;28;20469;-77
2022/10/01 08:07:34;;;;;;;0.50;0.10;;;10.70;93.80;;;;;;5047954;28;20482;-77
2022/10/01 08:10:03;;;;;;;0.50;0.20;;;10.70;95.00;;;;;;5072352;28;20940;-77
2022/10/01 08:12:31;;;;;;;0.60;0.20;;;10.80;97.40;;;;;;5072368;28;20469;-76
2022/10/01 08:15:01;;;;;;;0.50;0.10;;;10.80;98.60;;;;;;5079052;28;20476;-77
2022/10/01 08:17:28;;;;;;;0.50;0.20;;;10.80;98.10;;;;;;5076988;28;20442;-76
2022/10/01 08:19:56;;;;;;;3.70;1.40;;;10.80;97.30;;;;;;5080936;28;20471;-77
2022/10/01 08:22:24;;;;;;;1.20;0.60;;;10.80;97.30;;;;;;5092353;28;20469;-77
2022/10/01 08:24:53;;;;;;;0.60;0.30;;;10.80;97.50;;;;;;5076682;28;20526;-77
2022/10/01 08:27:23;;;;;;;0.60;0.27;;;10.80;98.60;;;;;;5072430;28;20454;-76
2022/10/01 08:29:51;;;;;;;1.13;1.03;;;10.80;99.90;;;;;;5072565;28;20446;-77
2022/10/01 08:32:18;;;;;;;0.60;0.30;;;10.80;99.90;;;;;;5073968;28;20515;-76
2022/10/01 08:34:46;;;;;;;1.67;1.13;;;10.80;99.90;;;;;;5092419;28;20453;-77
2022/10/01 08:37:14;;;;;;;0.60;0.50;;;10.80;99.90;;;;;;5092725;28;20452;-76
2022/10/01 08:39:42;;;;;;;1.20;0.77;;;10.80;99.90;;;;;;5095024;28;20774;-76
2022/10/01 08:42:27;;;;;;;0.97;0.67;;;10.80;99.90;;;;;;5106014;22;20527;-76
2022/10/01 08:44:55;;;;;;;0.80;0.37;;;11.70;99.90;;;;;;5081516;28;20530;-75
2022/10/01 08:47:29;;;;;;;0.90;0.57;;;10.80;99.90;;;;;;5066314;28;20445;-74
2022/10/01 08:50:00;;;;;;;0.87;0.63;;;10.90;99.90;;;;;;5074924;28;20469;-74
2022/10/01 08:52:31;;;;;;;3.70;1.70;;;10.90;99.90;;;;;;5074864;28;20457;-72
2022/10/01 08:55:04;;;;;;;4.87;2.97;;;10.90;99.90;;;;;;5074694;28;20477;-75
2022/10/01 08:57:39;;;;;;;1.90;1.50;;;11.00;99.90;;;;;;5080732;28;20433;-75
2022/10/01 09:00:13;;;;;;;0.90;0.50;;;10.90;99.90;;;;;;5082832;28;20445;-73
2022/10/01 09:02:42;;;;;;;2.07;1.47;;;10.90;99.90;;;;;;5078440;28;20842;-73
2022/10/01 09:05:21;;;;;;;1.07;0.73;;;10.90;99.90;;;;;;5075331;28;20437;-74
2022/10/01 09:08:02;;;;;;;0.60;0.60;;;10.90;99.90;;;;;;5075002;28;20484;-73
2022/10/01 09:10:41;;;;;;;4.97;1.90;;;10.90;99.90;;;;;;5070371;28;20489;-73
2022/10/01 09:13:45;;;;;;;1.80;1.00;;;10.90;99.90;;;;;;5055291;28;20859;-74
2022/10/01 09:16:24;;;;;;;0.60;0.33;;;10.90;99.90;;;;;;5010605;28;20533;-72
2022/10/01 09:19:09;;;;;;;0.63;0.40;;;10.90;99.90;;;;;;5062633;28;20456;-73
2022/10/01 09:21:47;;;;;;;2.20;1.20;;;11.00;99.90;;;;;;5054437;28;20470;-73
2022/10/01 09:24:17;;;;;;;0.50;0.10;;;11.00;99.90;;;;;;5064222;28;20473;-73
2022/10/01 09:26:48;;;;;;;1.67;1.00;;;11.00;99.90;;;;;;5074524;28;20449;-74
2022/10/01 09:29:24;;;;;;;0.70;0.20;;;11.00;99.90;;;;;;5071324;28;20470;-74
2022/10/01 09:31:54;;;;;;;1.13;1.00;;;11.00;99.90;;;;;;5071748;28;20464;-75
2022/10/01 09:34:30;;;;;;;0.50;0.13;;;11.00;99.90;;;;;;5067481;28;20982;-74
2022/10/01 09:37:09;;;;;;;0.90;0.40;;;11.00;99.90;;;;;;5073620;28;20788;-74
2022/10/01 09:39:46;;;;;;;0.60;0.30;;;11.00;99.90;;;;;;5073417;28;20503;-73
2022/10/01 09:42:14;;;;;;;0.83;0.70;;;11.00;99.90;;;;;;5066352;28;20484;-74
2022/10/01 09:44:43;;;;;;;0.80;0.80;;;11.00;99.90;;;;;;5061437;28;20459;-71
2022/10/01 09:47:17;;;;;;;1.00;1.00;;;11.00;99.90;;;;;;5057153;28;20443;-75
2022/10/01 09:49:49;;;;;;;5.30;4.90;;;11.10;99.90;;;;;;5071725;28;20469;-75
2022/10/01 09:52:25;;;;;;;3.13;1.37;;;11.00;99.90;;;;;;5075181;28;20495;-73
2022/10/01 09:54:57;;;;;;;0.70;0.70;;;11.00;99.90;;;;;;5074107;28;20503;-74
2022/10/01 09:57:32;;;;;;;0.90;0.50;;;11.00;99.90;;;;;;5073810;28;20469;-74
2022/10/01 10:00:09;;;;;;;1.23;1.13;;;11.00;99.90;;;;;;5073700;28;20448;-75
2022/10/01 10:02:41;;;;;;;0.90;0.30;;;11.00;99.90;;;;;;5073670;28;20466;-74
2022/10/01 10:05:18;;;;;;;1.03;0.93;;;11.10;99.90;;;;;;5072956;28;20504;-73
2022/10/01 10:07:47;;;;;;;2.00;0.83;;;11.10;99.90;;;;;;5072451;28;20571;-74
2022/10/01 10:10:27;;;;;;;0.70;0.40;;;11.20;99.90;;;;;;5071721;28;20517;-74
2022/10/01 10:12:57;;;;;;;1.03;0.93;;;11.10;99.90;;;;;;5073282;28;20524;-75
2022/10/01 10:15:30;;;;;;;0.50;0.20;;;11.20;99.90;;;;;;5068052;28;20487;-75
2022/10/01 10:18:06;;;;;;;0.50;0.10;;;11.30;99.90;;;;;;5070566;28;20545;-74
2022/10/01 10:20:39;;;;;;;0.60;0.40;;;11.40;99.90;;;;;;5063531;28;20974;-74
2022/10/01 10:23:09;;;;;;;0.67;0.33;;;11.40;99.90;;;;;;5053164;28;20479;-75
2022/10/01 10:25:37;;;;;;;1.47;1.27;;;11.40;99.90;;;;;;5068423;28;20446;-74
2022/10/01 10:28:05;;;;;;;10.80;5.30;;;11.50;99.90;;;;;;5073223;28;20493;-74
2022/10/01 10:30:37;;;;;;;0.93;0.93;;;11.40;99.90;;;;;;5072698;28;20489;-74
2022/10/01 10:33:07;;;;;;;1.10;0.50;;;11.40;99.90;;;;;;5053704;28;20928;-73
2022/10/01 10:35:35;;;;;;;0.60;0.30;;;11.40;99.90;;;;;;5053773;28;20533;-74
2022/10/01 10:38:04;;;;;;;0.50;0.10;;;11.40;99.90;;;;;;5052969;28;20454;-74
2022/10/01 10:40:40;;;;;;;0.70;0.50;;;11.40;99.90;;;;;;5070198;28;20450;-75
2022/10/01 10:43:19;;;;;;;0.80;0.50;;;11.40;99.90;;;;;;5064859;28;20469;-74
2022/10/01 10:45:54;;;;;;;0.90;0.50;;;11.40;99.90;;;;;;5072899;28;20495;-73
2022/10/01 10:48:25;;;;;;;0.80;0.30;;;11.50;99.90;;;;;;5072802;28;20452;-74
2022/10/01 10:50:59;;;;;;;0.50;0.10;;;11.60;99.90;;;;;;5052437;28;20865;-70
2022/10/01 10:53:28;;;;;;;0.67;0.20;;;11.60;99.90;;;;;;5060685;28;20466;-73
2022/10/01 10:55:59;;;;;;;0.60;0.30;;;11.70;99.90;;;;;;5061513;28;20446;-73
2022/10/01 10:58:29;;;;;;;0.77;0.40;;;11.70;99.90;;;;;;5083497;28;20531;-73
2022/10/01 11:01:01;;;;;;;0.73;0.60;;;11.70;99.90;;;;;;5091019;28;20433;-73
2022/10/01 11:03:32;;;;;;;0.60;0.30;;;11.70;99.90;;;;;;5090833;28;20444;-75
2022/10/01 11:06:10;;;;;;;0.50;0.20;;;11.70;99.90;;;;;;5064239;28;20449;-74
2022/10/01 11:08:39;;;;;;;0.50;0.10;;;11.80;99.90;;;;;;5070992;28;20441;-74
2022/10/01 11:11:17;;;;;;;0.50;0.10;;;12.10;99.90;;;;;;5067115;28;20439;-76
2022/10/01 11:14:02;;;;;;;0.50;0.10;;;12.10;99.90;;;;;;5069259;28;20818;-74
2022/10/01 11:16:54;;;;;;;0.80;0.57;;;12.20;99.90;;;;;;5070692;28;20498;-75
2022/10/01 11:19:41;;;;;;;0.50;0.10;;;12.30;99.90;;;;;;5070634;28;20446;-74
2022/10/01 11:22:24;;;;;;;0.60;0.10;;;12.30;99.40;;;;;;5072073;28;20991;-75
2022/10/01 11:25:13;;;;;;;0.50;0.17;;;12.30;99.50;;;;;;5069644;28;20453;-74
2022/10/01 11:27:48;;;;;;;0.50;0.10;;;12.30;95.50;;;;;;5052444;28;20434;-75
2022/10/01 11:30:23;;;;;;;0.50;0.10;;;12.20;94.30;;;;;;5052039;28;20885;-73
2022/10/01 11:33:02;;;;;;;0.60;0.40;;;12.30;97.10;;;;;;5058318;28;20522;-74
2022/10/01 11:35:52;;;;;;;0.57;0.10;;;12.30;96.80;;;;;;5071825;28;20503;-74
2022/10/01 11:38:43;;;;;;;0.50;0.10;;;12.30;98.00;;;;;;5070462;28;20480;-74
2022/10/01 11:41:30;;;;;;;0.60;0.20;;;12.30;99.00;;;;;;5069335;28;20503;-76
2022/10/01 11:44:02;;;;;;;0.60;0.20;;;12.30;99.90;;;;;;5086039;28;20450;-75
2022/10/01 11:46:44;;;;;;;3.30;1.70;;;12.30;99.90;;;;;;5079372;28;20491;-76
2022/10/01 11:49:28;;;;;;;2.67;1.03;;;12.30;99.90;;;;;;5073080;28;20918;-74
2022/10/01 11:52:06;;;;;;;1.37;0.50;;;12.20;99.90;;;;;;5071774;28;20515;-75
2022/10/01 11:54:36;;;;;;;0.60;0.20;;;12.20;99.90;;;;;;5071780;28;20449;-73
2022/10/01 11:59:55;;;;;;;2.70;0.60;;;12.20;99.90;;;;;;5071849;28;20437;-75
2022/10/01 12:02:30;;;;;;;0.60;0.10;;;12.40;99.90;;;;;;5072018;28;20506;-74
2022/10/01 12:05:04;;;;;;;0.60;0.20;;;12.40;99.90;;;;;;5069617;28;20474;-75
2022/10/01 12:07:38;;;;;;;0.57;0.20;;;12.50;99.90;;;;;;5070557;28;20450;-75
2022/10/01 12:10:17;;;;;;;1.20;1.10;;;12.60;99.90;;;;;;5070311;28;20484;-74
2022/10/01 12:12:51;;;;;;;0.60;0.13;;;12.60;99.90;;;;;;5069484;28;20457;-73
2022/10/01 12:15:25;;;;;;;1.43;0.87;;;12.60;99.90;;;;;;5066853;28;20441;-75
2022/10/01 12:17:59;;;;;;;0.83;0.33;;;12.70;99.90;;;;;;5066464;28;20530;-74
2022/10/01 12:20:33;;;;;;;0.97;0.40;;;12.80;99.90;;;;;;5056015;28;20438;-75
2022/10/01 12:23:06;;;;;;;2.83;0.67;;;12.90;96.00;;;;;;5055281;28;20464;-75
2022/10/01 12:25:43;;;;;;;0.60;0.10;;;12.90;97.10;;;;;;5065233;28;20444;-74
2022/10/01 12:28:17;;;;;;;0.60;0.10;;;13.00;95.30;;;;;;5075522;28;20503;-75
2022/10/01 12:30:50;;;;;;;0.70;0.33;;;13.10;93.30;;;;;;5067698;28;20502;-74
2022/10/01 12:33:37;;;;;;;0.60;0.40;;;13.10;92.70;;;;;;5073292;28;20855;-76
2022/10/01 12:36:18;;;;;;;0.60;0.27;;;13.20;92.80;;;;;;5064554;28;20469;-75
2022/10/01 12:38:58;;;;;;;0.97;0.30;;;13.30;90.00;;;;;;5072958;28;20463;-74
2022/10/01 12:41:40;;;;;;;0.60;0.10;;;13.40;83.00;;;;;;5068724;28;20493;-74
2022/10/01 12:44:36;;;;;;;0.90;0.40;;;13.40;85.20;;;;;;5066251;28;20803;-74
2022/10/01 12:47:23;;;;;;;0.87;0.40;;;13.50;81.50;;;;;;5074081;28;20425;-74
2022/10/01 12:50:03;;;;;;;0.60;0.10;;;13.60;77.20;;;;;;5064153;28;20552;-75
2022/10/01 12:52:42;;;;;;;0.80;0.40;;;13.70;73.90;;;;;;5074386;28;20491;-74
2022/10/01 12:55:46;;;;;;;0.60;0.20;;;13.70;74.60;;;;;;5075856;28;20498;-75
2022/10/01 12:58:28;;;;;;;2.83;0.87;;;13.90;74.60;;;;;;5073897;28;20453;-75
2022/10/01 13:01:05;;;;;;;0.60;0.10;;;13.90;55.30;;;;;;5072464;28;20445;-73
2022/10/01 13:03:54;;;;;;;0.60;0.10;;;13.90;57.80;;;;;;5076759;28;20445;-73
2022/10/01 13:06:40;;;;;;;0.60;0.10;;;14.00;46.00;;;;;;5072241;28;20536;-75
2022/10/01 13:09:17;;;;;;;0.60;0.10;;;;;;;;;;5060799;28;20714;-73
2022/10/01 13:12:10;;;;;;;0.60;0.10;;;14.10;38.80;;;;;;5079926;28;20477;-74
2022/10/01 13:14:39;;;;;;;0.60;0.10;;;14.20;40.40;;;;;;5084895;28;20446;-73
2022/10/01 13:17:14;;;;;;;0.60;0.20;;;14.30;37.80;;;;;;5078985;28;20465;-75
2022/10/01 13:19:48;;;;;;;0.60;0.10;;;14.40;36.30;;;;;;5069135;28;20445;-74
2022/10/01 13:22:22;;;;;;;0.60;0.20;;;14.70;24.10;;;;;;5076781;28;20836;-73
2022/10/01 13:25:00;;;;;;;0.60;0.10;;;14.70;20.00;;;;;;5076839;28;20563;-74